createdAt,value
2019-02-07T00:00:20.313Z,4.80
2019-02-07T00:02:30.710Z,4.80
2019-02-07T00:04:44.025Z,4.70
2019-02-07T00:06:54.537Z,4.90
2019-02-07T00:09:01.864Z,4.70
2019-02-07T00:11:07.838Z,4.80
2019-02-07T00:13:16.081Z,4.80
2019-02-07T00:15:22.831Z,4.70
2019-02-07T00:17:36.137Z,4.60
2019-02-07T00:19:47.607Z,4.80
2019-02-07T00:21:58.203Z,5.30
2019-02-07T00:24:09.355Z,4.80
2019-02-07T00:26:18.487Z,4.90
2019-02-07T00:28:26.408Z,4.80
2019-02-07T00:30:40.875Z,4.90
2019-02-07T00:32:47.811Z,4.80
2019-02-07T00:34:59.688Z,4.90
2019-02-07T00:37:08.412Z,5.00
2019-02-07T00:39:24.544Z,5.30
2019-02-07T00:41:33.094Z,5.20
2019-02-07T00:43:41.959Z,5.20
2019-02-07T00:45:54.770Z,5.30
2019-02-07T00:48:07.931Z,5.20
2019-02-07T00:50:18.826Z,5.30
2019-02-07T00:52:29.502Z,5.40
2019-02-07T00:54:41.526Z,5.10
2019-02-07T00:56:49.929Z,5.40
2019-02-07T00:58:59.907Z,5.60
2019-02-07T01:01:08.406Z,5.30
2019-02-07T01:03:16.950Z,5.40
2019-02-07T01:05:29.814Z,5.20
2019-02-07T01:07:41.031Z,5.10
2019-02-07T01:09:50.991Z,4.80
2019-02-07T01:12:00.059Z,4.70
2019-02-07T01:14:10.482Z,4.90
2019-02-07T01:16:18.108Z,4.90
2019-02-07T01:18:23.631Z,5.10
2019-02-07T01:20:31.267Z,5.10
2019-02-07T01:22:39.254Z,5.20
2019-02-07T01:24:48.278Z,5.10
2019-02-07T01:26:59.240Z,5.10
2019-02-07T01:29:09.641Z,5.00
2019-02-07T01:31:18.539Z,4.90
2019-02-07T01:33:28.643Z,5.20
2019-02-07T01:35:38.507Z,5.10
2019-02-07T01:37:51.407Z,5.20
2019-02-07T01:40:00.530Z,5.30
2019-02-07T01:42:06.965Z,5.20
2019-02-07T01:44:15.367Z,5.10
2019-02-07T01:46:26.091Z,5.20
2019-02-07T01:48:34.183Z,5.20
2019-02-07T01:50:46.050Z,5.30
2019-02-07T01:52:52.794Z,5.40
2019-02-07T01:55:03.529Z,5.40
2019-02-07T01:57:11.958Z,5.40
2019-02-07T01:59:20.535Z,5.40
2019-02-07T02:01:34.415Z,5.30
2019-02-07T02:03:42.758Z,5.20
2019-02-07T02:05:52.728Z,5.40
2019-02-07T02:08:04.657Z,5.60
2019-02-07T02:10:15.735Z,5.80
2019-02-07T02:12:28.054Z,5.80
2019-02-07T02:14:39.975Z,5.50
2019-02-07T02:16:48.677Z,5.40
2019-02-07T02:18:58.236Z,5.20
2019-02-07T02:21:09.029Z,5.20
2019-02-07T02:23:19.079Z,5.20
2019-02-07T02:25:29.671Z,5.10
2019-02-07T02:27:41.049Z,5.30
2019-02-07T02:29:53.590Z,5.30
2019-02-07T02:32:02.342Z,5.20
2019-02-07T02:34:10.897Z,5.10
2019-02-07T02:36:18.023Z,5.30
2019-02-07T02:38:27.383Z,5.50
2019-02-07T02:40:38.355Z,5.60
2019-02-07T02:42:48.472Z,5.50
2019-02-07T02:44:59.367Z,5.70
2019-02-07T02:47:09.799Z,5.60
2019-02-07T02:49:17.590Z,5.40
2019-02-07T02:51:27.606Z,5.30
2019-02-07T02:53:36.647Z,5.20
2019-02-07T02:55:48.009Z,5.40
2019-02-07T02:57:59.718Z,5.40
2019-02-07T03:00:14.599Z,5.60
2019-02-07T03:02:44.748Z,5.70
2019-02-07T03:05:10.663Z,5.60
2019-02-07T03:07:41.903Z,5.60
2019-02-07T03:10:10.151Z,5.60
2019-02-07T03:12:41.801Z,5.50
2019-02-07T03:15:10.931Z,5.60
2019-02-07T03:17:28.827Z,5.70
2019-02-07T03:20:03.179Z,5.30
2019-02-07T03:22:33.690Z,5.20
2019-02-07T03:25:04.412Z,5.00
2019-02-07T03:27:43.247Z,4.90
2019-02-07T03:30:18.905Z,4.90
2019-02-07T03:32:41.184Z,4.80
2019-02-07T03:35:03.769Z,4.90
2019-02-07T03:37:33.622Z,5.20
2019-02-07T03:39:58.008Z,5.10
2019-02-07T03:42:44.071Z,5.30
2019-02-07T03:45:18.515Z,5.10
2019-02-07T03:47:43.242Z,5.00
2019-02-07T03:50:16.308Z,5.30
2019-02-07T03:53:00.287Z,5.40
2019-02-07T03:55:24.107Z,5.50
2019-02-07T03:57:50.349Z,5.50
2019-02-07T04:00:16.600Z,5.20
2019-02-07T04:02:42.598Z,5.30
2019-02-07T04:05:09.882Z,5.40
2019-02-07T04:07:31.384Z,5.50
2019-02-07T04:09:58.247Z,5.40
2019-02-07T04:12:22.387Z,5.50
2019-02-07T04:14:47.830Z,5.90
2019-02-07T04:17:12.341Z,5.90
2019-02-07T04:19:36.639Z,5.90
2019-02-07T04:22:06.433Z,6.00
2019-02-07T04:24:26.119Z,6.10
2019-02-07T04:26:47.146Z,6.00
2019-02-07T04:29:03.138Z,6.20
2019-02-07T04:31:25.232Z,6.40
2019-02-07T04:33:49.926Z,6.30
2019-02-07T04:36:20.076Z,5.60
2019-02-07T04:38:48.361Z,5.70
2019-02-07T04:41:26.159Z,5.80
2019-02-07T04:43:54.397Z,5.60
2019-02-07T04:46:26.681Z,5.50
2019-02-07T04:48:47.459Z,5.70
2019-02-07T04:51:08.439Z,5.40
2019-02-07T04:53:40.748Z,5.50
2019-02-07T04:56:06.283Z,5.50
2019-02-07T04:58:33.275Z,5.40
2019-02-07T05:01:02.613Z,5.50
2019-02-07T05:03:27.746Z,5.40
2019-02-07T05:05:55.967Z,5.10
2019-02-07T05:08:16.659Z,4.90
2019-02-07T05:10:44.975Z,5.00
2019-02-07T05:13:13.496Z,4.90
2019-02-07T05:15:47.045Z,4.80
2019-02-07T05:18:20.797Z,4.70
2019-02-07T05:20:50.047Z,4.80
2019-02-07T05:23:17.486Z,4.80
2019-02-07T05:26:03.394Z,4.70
2019-02-07T05:28:41.971Z,4.90
2019-02-07T05:31:05.575Z,5.10
2019-02-07T05:33:37.749Z,5.20
2019-02-07T05:36:10.904Z,4.70
2019-02-07T05:38:36.048Z,4.70
2019-02-07T05:41:22.808Z,4.70
2019-02-07T05:43:50.860Z,4.70
2019-02-07T05:46:16.703Z,4.60
2019-02-07T05:48:45.196Z,4.50
2019-02-07T05:51:15.190Z,4.70
2019-02-07T05:53:35.250Z,4.70
2019-02-07T05:56:19.236Z,4.70
2019-02-07T05:58:49.454Z,4.70
2019-02-07T06:01:10.373Z,4.50
2019-02-07T06:03:44.815Z,4.40
2019-02-07T06:06:11.039Z,4.60
2019-02-07T06:08:31.048Z,4.60
2019-02-07T06:10:58.638Z,4.70
2019-02-07T06:13:26.802Z,4.70
2019-02-07T06:15:52.967Z,4.60
2019-02-07T06:18:19.156Z,4.60
2019-02-07T06:20:49.459Z,4.50
2019-02-07T06:23:15.506Z,4.60
2019-02-07T06:25:38.762Z,4.50
2019-02-07T06:28:03.497Z,4.60
2019-02-07T06:30:45.079Z,4.70
2019-02-07T06:33:13.713Z,4.40
2019-02-07T06:35:38.651Z,4.60
2019-02-07T06:38:03.758Z,4.60
2019-02-07T06:40:37.768Z,4.50
2019-02-07T06:42:58.779Z,4.20
2019-02-07T06:45:40.255Z,4.40
2019-02-07T06:48:12.691Z,4.50
2019-02-07T06:50:37.671Z,4.30
2019-02-07T06:53:04.471Z,4.40
2019-02-07T06:55:29.345Z,4.50
2019-02-07T06:57:52.617Z,4.40
2019-02-07T07:00:17.279Z,4.30
2019-02-07T07:02:41.543Z,4.40
2019-02-07T07:05:16.140Z,4.40
2019-02-07T07:07:44.564Z,4.60
2019-02-07T07:10:12.459Z,4.50
2019-02-07T07:12:40.687Z,4.20
2019-02-07T07:15:05.019Z,4.30
2019-02-07T07:17:40.985Z,4.30
2019-02-07T07:20:06.332Z,4.30
2019-02-07T07:22:40.002Z,4.20
2019-02-07T07:25:16.459Z,4.20
2019-02-07T07:27:44.059Z,4.40
2019-02-07T07:30:14.436Z,4.30
2019-02-07T07:32:37.580Z,4.40
2019-02-07T07:34:54.592Z,4.30
2019-02-07T07:37:18.632Z,4.50
2019-02-07T07:39:54.365Z,4.50
2019-02-07T07:42:23.404Z,4.30
2019-02-07T07:44:55.203Z,4.50
2019-02-07T07:47:20.559Z,4.60
2019-02-07T07:49:52.000Z,4.50
2019-02-07T07:52:17.857Z,4.50
2019-02-07T07:55:01.392Z,4.40
2019-02-07T07:57:31.381Z,4.40
2019-02-07T08:00:07.338Z,4.40
2019-02-07T08:02:43.651Z,4.30
2019-02-07T08:05:18.060Z,4.40
2019-02-07T08:07:39.244Z,4.30
2019-02-07T08:10:28.684Z,4.40
2019-02-07T08:12:52.650Z,4.30
2019-02-07T08:15:33.675Z,4.50
2019-02-07T08:18:05.801Z,4.40
2019-02-07T08:20:31.887Z,4.40
2019-02-07T08:23:04.693Z,4.80
2019-02-07T08:25:37.393Z,4.60
2019-02-07T08:28:02.586Z,4.60
2019-02-07T08:30:36.160Z,4.60
2019-02-07T08:32:56.531Z,4.60
2019-02-07T08:35:29.515Z,4.40
2019-02-07T08:38:09.871Z,4.30
2019-02-07T08:40:58.186Z,4.20
2019-02-07T08:48:39.296Z,4.20
2019-02-07T08:51:09.266Z,4.00
2019-02-07T08:53:55.004Z,4.00
2019-02-07T08:56:29.197Z,4.00
2019-02-07T08:59:06.970Z,4.20
2019-02-07T09:03:58.951Z,4.20
2019-02-07T09:06:37.407Z,4.20
2019-02-07T09:09:05.683Z,4.00
2019-02-07T09:19:28.487Z,4.00
2019-02-07T09:21:58.199Z,4.00
2019-02-07T09:24:28.911Z,4.20
2019-02-07T09:27:00.812Z,4.10
2019-02-07T09:29:41.319Z,4.50
2019-02-07T09:32:08.284Z,4.30
2019-02-07T09:34:33.991Z,4.20
2019-02-07T09:37:12.331Z,4.20
2019-02-07T09:39:48.722Z,4.20
2019-02-07T09:42:16.922Z,4.30
2019-02-07T09:44:46.038Z,4.20
2019-02-07T09:47:14.394Z,4.30
2019-02-07T09:49:51.146Z,4.20
2019-02-07T09:52:22.123Z,4.20
2019-02-07T09:54:55.645Z,4.30
2019-02-07T09:57:28.325Z,4.40
2019-02-07T09:59:54.241Z,4.30
2019-02-07T10:02:41.568Z,4.50
2019-02-07T10:05:14.585Z,4.40
2019-02-07T10:10:41.317Z,4.30
2019-02-07T10:13:26.645Z,4.20
2019-02-07T10:16:11.257Z,4.40
2019-02-07T10:18:54.210Z,4.60
2019-02-07T10:21:18.420Z,4.50
2019-02-07T10:23:47.668Z,4.60
2019-02-07T10:26:12.703Z,4.60
2019-02-07T10:28:40.171Z,4.50
2019-02-07T10:30:59.299Z,4.50
2019-02-07T10:33:25.185Z,4.50
2019-02-07T10:35:48.668Z,4.50
2019-02-07T10:38:21.621Z,4.50
2019-02-07T10:40:51.794Z,4.60
2019-02-07T10:43:29.319Z,4.60
2019-02-07T10:45:56.027Z,4.70
2019-02-07T10:48:49.051Z,4.50
2019-02-07T10:51:16.870Z,4.40
2019-02-07T10:53:40.941Z,4.50
2019-02-07T10:56:13.286Z,4.30
2019-02-07T10:58:39.702Z,4.20
2019-02-07T11:01:05.487Z,4.30
2019-02-07T11:03:37.583Z,4.30
2019-02-07T11:05:56.340Z,4.40
2019-02-07T11:08:20.985Z,4.30
2019-02-07T11:10:46.765Z,4.30
2019-02-07T11:13:10.156Z,4.20
2019-02-07T11:15:55.641Z,4.20
2019-02-07T11:18:24.071Z,4.10
2019-02-07T11:21:01.792Z,4.20
2019-02-07T11:23:34.599Z,4.20
2019-02-07T11:25:58.431Z,4.10
2019-02-07T11:28:42.623Z,4.00
2019-02-07T11:31:13.101Z,4.00
2019-02-07T11:33:36.888Z,3.80
2019-02-07T11:36:00.548Z,3.90
2019-02-07T11:38:37.800Z,3.90
2019-02-07T11:41:05.324Z,3.80
2019-02-07T11:43:30.196Z,3.90
2019-02-07T11:45:53.927Z,3.80
2019-02-07T11:48:27.980Z,3.80
2019-02-07T11:50:52.743Z,3.90
2019-02-07T11:53:16.587Z,3.80
2019-02-07T11:55:42.379Z,3.80
2019-02-07T11:58:27.448Z,3.70
2019-02-07T12:01:10.141Z,3.90
2019-02-07T12:03:38.143Z,3.70
2019-02-07T12:06:02.272Z,3.80
2019-02-07T12:08:27.387Z,3.90
2019-02-07T12:11:01.042Z,3.90
2019-02-07T12:13:29.414Z,3.70
2019-02-07T12:15:47.538Z,3.80
2019-02-07T12:18:13.428Z,3.90
2019-02-07T12:20:40.493Z,3.90
2019-02-07T12:23:10.415Z,3.90
2019-02-07T12:25:45.946Z,3.70
2019-02-07T12:28:07.931Z,3.60
2019-02-07T12:30:31.107Z,3.60
2019-02-07T12:32:54.243Z,3.70
2019-02-07T12:35:17.678Z,3.80
2019-02-07T12:37:45.791Z,3.70
2019-02-07T12:40:24.657Z,3.90
2019-02-07T12:42:57.033Z,3.90
2019-02-07T12:45:16.086Z,3.80
2019-02-07T12:47:38.866Z,4.00
2019-02-07T12:50:02.127Z,3.90
2019-02-07T12:52:27.362Z,3.80
2019-02-07T12:54:55.001Z,3.70
2019-02-07T12:57:13.242Z,3.60
2019-02-07T12:59:42.479Z,3.60
2019-02-07T13:02:07.738Z,3.60
2019-02-07T13:04:50.043Z,3.60
2019-02-07T13:07:20.875Z,3.70
2019-02-07T13:10:07.987Z,3.50
2019-02-07T13:12:33.209Z,3.70
2019-02-07T13:15:16.112Z,3.70
2019-02-07T13:17:52.217Z,3.90
2019-02-07T13:20:20.277Z,3.50
2019-02-07T13:23:00.139Z,3.40
2019-02-07T13:25:28.539Z,3.50
2019-02-07T13:28:02.480Z,3.50
2019-02-07T13:30:44.372Z,3.40
2019-02-07T13:33:09.681Z,3.30
2019-02-07T13:35:32.026Z,3.30
2019-02-07T13:37:46.483Z,3.20
2019-02-07T13:40:09.552Z,3.40
2019-02-07T13:42:48.656Z,3.50
2019-02-07T13:45:15.279Z,3.60
2019-02-07T13:47:44.736Z,3.60
2019-02-07T13:50:11.819Z,3.70
2019-02-07T13:59:28.760Z,3.40
2019-02-07T14:02:13.436Z,3.20
2019-02-07T14:05:09.575Z,3.30
